Nearby METAR Reports

 

KBFI - Seattle/Boeing, Washington, USA
Distance from station: S 10mi, 16km
Updated: Sat, 23-Jun-2018 7:53am PDT
Overcast
Overcast
 Wind from ENE
Wind: ENE 5 mph , 7 km/h
Temperature: 57°F , 14°C
Dew Point: 54°F , 12°C
Humidity: 88%
Barometer: 30.17 inHg , 1021.7 hPa
Clouds: Overcast
Visibility: 10 miles , 16 km
Cloud details: Overcast 1800 ft
2018/06/23 14:53 KBFI 231453Z 06004KT 10SM OVC018 14/12 A3017 RMK AO2 SLP217 T01440117 53008 $
KRNT - Renton, Washington, USA
Distance from station: SSE 14mi, 23km
Updated: Sat, 23-Jun-2018 7:53am PDT
Overcast
Overcast
 Wind from NNW
Wind: NNW 3 mph , 6 km/h
Temperature: 59°F , 15°C
Dew Point: 27°F , -3°C
Humidity: 29%
Barometer: 30.17 inHg , 1021.7 hPa
Clouds: Overcast
Visibility: 10 miles , 16 km
Cloud details: Overcast 1700 ft
2018/06/23 14:53 KRNT 231453Z 33003KT 10SM OVC017 15/M03 A3017 RMK AO2 SLP221 T01501028 53007
 
KPAE - Everett, Washington, USA
Distance from station: N 15mi, 25km
Updated: Sat, 23-Jun-2018 7:53am PDT
Overcast
Overcast
 Wind from NW
Wind: NW 5 mph , 7 km/h
Temperature: 55°F , 13°C
Dew Point: 50°F , 10°C
Humidity: 82%
Barometer: 30.18 inHg , 1022 hPa
Clouds: Overcast
Visibility: 10 miles , 16 km
Cloud details: Overcast 1600 ft
2018/06/23 14:53 KPAE 231453Z 32004KT 10SM OVC016 13/10 A3018 RMK AO2 SLP219 T01280100 53006
KSEA - Seattle/Metro, Washington, USA
Distance from station: S 17mi, 27km
Updated: Sat, 23-Jun-2018 7:53am PDT
Overcast
Overcast
 Wind from E
Wind: E 5 mph , 7 km/h
Temperature: 57°F , 14°C
Dew Point: 54°F , 12°C
Humidity: 88%
Barometer: 30.17 inHg , 1021.7 hPa
Clouds: Overcast
Visibility: 10 miles , 16 km
Cloud details: Overcast 1200 ft
2018/06/23 14:53 KSEA 231453Z 09004KT 10SM OVC012 14/12 A3017 RMK AO2 SLP223 T01390117 53008
 
KPWT - Bremerton Ntnl, Washington, USA
Distance from station: SW 24mi, 39km
Updated: Sat, 23-Jun-2018 7:56am PDT
Overcast
Overcast
 Wind from ENE
Wind: ENE 6 mph , 9 km/h
Temperature: 55°F , 13°C
Dew Point: 54°F , 12°C
Humidity: 94%
Barometer: 30.18 inHg , 1022 hPa
Clouds: Overcast
Visibility: 10 miles , 16 km
Cloud details: Few Clouds 700 ft
Overcast 1900 ft
2018/06/23 14:56 KPWT 231456Z AUTO 07005KT 10SM FEW007 OVC019 13/12 A3018 RMK AO2 SLP235 6//// T01330122 51006
KTIW - Tacoma, Washington, USA
Distance from station: SSW 32mi, 52km
Updated: Sat, 23-Jun-2018 7:53am PDT
Mist, Overcast
Mist, Overcast
 Wind from NE
Wind: NE 3 mph , 6 km/h
Temperature: 57°F , 14°C
Dew Point: 54°F , 12°C
Humidity: 88%
Barometer: 30.17 inHg , 1021.7 hPa
Summary: Mist
Clouds: Overcast
Visibility: 5 miles , 8 km
Cloud details: Partly cloudy 900 ft
Mostly cloudy 1300 ft
Overcast 1900 ft
2018/06/23 14:53 KTIW 231453Z 05003KT 5SM BR SCT009 BKN013 OVC019 14/12 A3017 RMK AO2 SLP217 T01390122 53006
 
KAWO - Arlington Muni, Washington, USA
Distance from station: N 33mi, 54km
Updated: Sat, 23-Jun-2018 7:45am PDT
Mist, Overcast
Mist, Overcast
 Wind from calm
Wind: Calm
Temperature: 55°F , 13°C
Dew Point: 54°F , 12°C
Humidity: 94%
Barometer: 30.18 inHg , 1022 hPa
Summary: Mist
Clouds: Overcast
Visibility: 5 miles , 8 km
Cloud details: Mostly cloudy 900 ft
Overcast 1400 ft
2018/06/23 14:45 KAWO 231445Z AUTO 00000KT 5SM BR BKN009 OVC014 13/12 A3018 RMK AO2 RAE18 CIG 006V011 P0000
KTCM - Tacoma/Mc Chord, Washington, USA
Distance from station: S 41mi, 65km
Updated: Sat, 23-Jun-2018 8:13am PDT
Mostly cloudy
Mostly cloudy
 Wind from S
Wind: S 3 mph , 6 km/h
Temperature: 57°F , 14°C
Dew Point: 57°F , 14°C
Humidity: 100%
Barometer: 30.17 inHg , 1021.7 hPa
Clouds: Mostly cloudy
Visibility: 10 miles , 16 km
Cloud details: Mostly cloudy 1100 ft
2018/06/23 15:13 KTCM 231513Z AUTO 19003KT 10SM BKN011 14/14 A3017 RMK AO2 CIG 007V013 CIG 008 RWY34 SLP220 $
 
KPLU - Puyallup/Thun, Washington, USA
Distance from station: S 41mi, 66km
Updated: Sat, 23-Jun-2018 8:15am PDT
Mostly cloudy
Mostly cloudy
 Wind from calm
Wind: Calm
Temperature: 61°F , 16°C
Dew Point: 57°F , 14°C
Humidity: 88%
Barometer: 30.17 inHg , 1021.7 hPa
Clouds: Mostly cloudy
Visibility: 10 miles , 16 km
Cloud details: Partly cloudy 800 ft
Mostly cloudy 1300 ft
2018/06/23 15:15 KPLU 231515Z AUTO 00000KT 10SM SCT008 BKN013 16/14 A3017 RMK AO2
KGRF - Fort Lewis/Gray, Washington, USA
Distance from station: SSW 45mi, 72km
Updated: Sat, 23-Jun-2018 7:58am PDT
Mostly cloudy
Mostly cloudy
 Wind from SSE
Wind: SSE 5 mph , 7 km/h
Temperature: 57°F , 14°C
Dew Point: 57°F , 14°C
Humidity: 100%
Barometer: 30.16 inHg , 1021.3 hPa
Clouds: Mostly cloudy
Visibility: 10 miles , 16 km
Cloud details: Mostly cloudy 700 ft
2018/06/23 14:58 KGRF 231458Z 15004KT 10SM BKN007 14/14 A3016 RMK AO2A DZB13E33 SLP217 P0000 T01400140 52006 $
 
KNUW - Whidbey Is. Nas, Washington, USA
Distance from station: NNW 48mi, 77km
Updated: Sat, 23-Jun-2018 8:25am PDT
Mostly cloudy
Mostly cloudy
 Wind from WSW
Wind: WSW 7 mph , 11 km/h
Temperature: 57°F , 14°C
Dew Point: 54°F , 12°C
Humidity: 88%
Barometer: 30.21 inHg , 1023 hPa
Clouds: Mostly cloudy
Visibility: 10 miles , 16 km
Cloud details: Partly cloudy 1900 ft
Mostly cloudy 4300 ft
Mostly cloudy 4800 ft
2018/06/23 15:25 KNUW 231525Z 24006KT 10SM SCT019 BKN043 BKN048 14/12 A3021 RMK AO2 T01440117 $
KSHN - Shelton, Washington, USA
Distance from station: SW 50mi, 80km
Updated: Sat, 23-Jun-2018 8:07am PDT
Overcast
Overcast
 Wind from calm
Wind: Calm
Temperature: 57°F , 14°C
Dew Point: 54°F , 12°C
Humidity: 88%
Barometer: 30.15 inHg , 1021 hPa
Clouds: Overcast
Visibility: 10 miles , 16 km
Cloud details: Overcast 1000 ft
2018/06/23 15:07 KSHN 231507Z AUTO 00000KT 10SM OVC010 14/12 A3015 RMK AO2 CIG 007V015 T01440122